To NAV CANADA Home Page Login to a new session Search on AWWS site Disclaimer Vers la page française équivalente Tips FAQ What's new on the site To the Forecasts and Observations / NOTAM section To "File a Flight Plan" website Publications and other links Update of the User's profile FIC Telephone Numbers My Weather Data Folder Route Weather Data Regional Weather Data Local Weather Data To the Forecasts and Observations / NOTAM section
Request Generated 03/21/2019 at 01:54:17 UTC . Weather information available at that time is displayed.

METAR/TAF

SYDNEY/J.A. DOUGLAS MCCURDY/NS    

METAR CYQY 210100Z 18005KT 160V230 15SM SKC M03/M12 A3027 RMK SLP256=
METAR CYQY 210000Z 23007KT 15SM SKC M04/M14 A3026 RMK SLP253=
METAR CYQY 202300Z 24004KT 15SM SKC M02/M16 A3025 RMK SLP249=

TAF CYQY 202338Z 2100/2112 25005KT P6SM SKC
RMK NXT FCST BY 210600Z=
Your time UTC time
Weather data provided by Environment Canada and NAV CANADA